»·PEaware :: N54JA KSBD-KEMT

N54JA :: KSBD-KEMT

FLIGHT INFORMATION

Flight Status: Arrived
Operator: Privately registered:
United States
More flights under this callsign
Pilot: Kevin S. (26378)
Aircraft: CESSNA 172 SKYHAWK
(C172)
More flights by this aircraft type
Origin: KSBD San Bernardino Intl
United States
Destination: KEMT El Monte
United States
More flights between these airports :: More routes between these airports
Route:
File this flight plan on PilotEdge
Remarks:
Altitude:
(Current/Filed)
3,000ft
Speed:
(Current/Filed)
100kts
Departed: 06-Oct-19 12:37 PM
Arrived: 06-Oct-19 01:12 PM
Distance/Time
Traveled:
40nm/0:35
Distance/Time
To Go:
Arrived

Flight Plot

Page will automatically refresh every two minutes.


Map Options




Map Legend


Flown Route
Filed Route
Departure Airport
Arrival Airport
Navaid (VOR, NDB)
Fix

Horizontal Profiles

Position Reports

Time Latitude Longitude Heading Altitude Ground
Speed
06-Oct-19 12:08 34.102166 -117.224730 94 1146ft 0kts
06-Oct-19 12:09 34.102166 -117.224730 94 1146ft 0kts
06-Oct-19 12:10 34.102166 -117.224730 94 1146ft 0kts
06-Oct-19 12:11 34.102166 -117.224730 94 1146ft 0kts
06-Oct-19 12:12 34.102166 -117.224730 94 1146ft 0kts
06-Oct-19 12:13 34.102166 -117.224730 94 1146ft 0kts
06-Oct-19 12:14 34.102166 -117.224730 94 1146ft 0kts
06-Oct-19 12:15 34.102166 -117.224730 94 1146ft 0kts
06-Oct-19 12:16 34.102166 -117.224730 94 1146ft 0kts
06-Oct-19 12:17 34.102166 -117.224730 94 1146ft 0kts
06-Oct-19 12:18 34.102166 -117.224730 94 1146ft 0kts
06-Oct-19 12:19 34.102166 -117.224730 94 1146ft 0kts
06-Oct-19 12:20 34.102166 -117.224730 94 1146ft 0kts
06-Oct-19 12:21 34.102166 -117.224730 94 1146ft 0kts
06-Oct-19 12:22 34.102166 -117.224730 94 1146ft 0kts
06-Oct-19 12:23 34.102166 -117.224730 94 1146ft 0kts
06-Oct-19 12:24 34.102166 -117.224730 94 1146ft 0kts
06-Oct-19 12:25 34.102166 -117.224730 94 1146ft 0kts
06-Oct-19 12:26 34.102142 -117.224706 161 1146ft 0kts
06-Oct-19 12:27 34.100968 -117.223483 70 1148ft 12kts
06-Oct-19 12:28 34.101338 -117.219652 112 1159ft 0kts
06-Oct-19 12:29 34.100785 -117.219820 169 1159ft 0kts
06-Oct-19 12:30 34.100785 -117.219820 169 1159ft 0kts
06-Oct-19 12:31 34.100785 -117.219820 169 1159ft 0kts
06-Oct-19 12:32 34.100785 -117.219820 169 1159ft 0kts
06-Oct-19 12:33 34.100785 -117.219820 169 1159ft 0kts
06-Oct-19 12:34 34.100785 -117.219820 169 1159ft 0kts
06-Oct-19 12:35 34.099912 -117.219975 221 1158ft 12kts
06-Oct-19 12:36 34.095583 -117.236847 254 1651ft 79kts
06-Oct-19 12:37 34.091688 -117.260873 318 2558ft 90kts
06-Oct-19 12:38 34.115748 -117.258899 1 3113ft 92kts
06-Oct-19 12:39 34.140486 -117.258039 327 3123ft 88kts
06-Oct-19 12:40 34.146090 -117.283966 274 3115ft 80kts
06-Oct-19 12:41 34.151375 -117.311242 281 3091ft 84kts
06-Oct-19 12:42 34.157362 -117.338414 242 2912ft 94kts
06-Oct-19 12:43 34.142599 -117.361640 234 3020ft 84kts
06-Oct-19 12:44 34.131378 -117.385973 239 3100ft 85kts
06-Oct-19 12:45 34.115674 -117.405473 261 3047ft 85kts
06-Oct-19 12:46 34.115168 -117.433609 264 3074ft 83kts
06-Oct-19 12:47 34.114542 -117.461920 271 3103ft 84kts
06-Oct-19 12:48 34.115019 -117.490319 272 3143ft 84kts
06-Oct-19 12:49 34.115313 -117.518730 259 3121ft 90kts
06-Oct-19 12:50 34.113268 -117.546976 267 2972ft 84kts
06-Oct-19 12:51 34.113117 -117.575030 259 2725ft 83kts
06-Oct-19 12:52 34.112169 -117.603062 268 2464ft 84kts
06-Oct-19 12:53 34.108954 -117.630140 257 2447ft 85kts
06-Oct-19 12:54 34.105263 -117.657350 252 2481ft 89kts
06-Oct-19 12:55 34.091421 -117.681862 240 2423ft 95kts
06-Oct-19 12:56 34.086917 -117.711862 263 2527ft 96kts
06-Oct-19 12:57 34.081244 -117.742391 256 2596ft 94kts
06-Oct-19 12:58 34.074656 -117.772689 261 2478ft 93kts
06-Oct-19 12:59 34.073675 -117.803155 268 2419ft 96kts
06-Oct-19 13:00 34.072254 -117.834318 262 2375ft 93kts
06-Oct-19 13:01 34.068170 -117.865686 259 2246ft 98kts
06-Oct-19 13:02 34.061939 -117.897072 239 2256ft 96kts
06-Oct-19 13:03 34.043391 -117.920058 231 2274ft 97kts
06-Oct-19 13:04 34.027111 -117.944269 211 2277ft 96kts
06-Oct-19 13:05 34.019318 -117.969529 284 2153ft 95kts
06-Oct-19 13:06 34.027572 -117.999064 326 1625ft 101kts
06-Oct-19 13:07 34.053827 -117.998692 2 986ft 97kts
06-Oct-19 13:08 34.074707 -118.014348 297 1060ft 99kts
06-Oct-19 13:09 34.097229 -118.011781 350 953ft 75kts
06-Oct-19 13:10 34.095669 -118.028768 211 446ft 55kts
06-Oct-19 13:11 34.086465 -118.034555 202 287ft 22kts
06-Oct-19 13:12 34.084951 -118.034697 141 287ft 10kts

Navigation Log

Ident Type
Flight plan parsing failed, navigation log unavailable